Česky Dansk Deutsch English Espaol Suomi Français Magyar Italiano Nederlands norsk Polski Portugus svenska Trke

 

Het Weer

Dole Tavaux (Frankrijk)

07:30, 23 augustus 2016 (GMT)

NWNNE
WE
SWSSE
Home            
Dole Tavaux Dijon Besancon Macon Les Eplatures Geneve-Cointrin Lausanne Luxeuil Chatillon-Sur-Seine Neuchatel Payerne Amberieu Belfort Saint-Yan Lyon / Satolas Grenchen Lyon / Bron Bern / Belp Chambery / Aix-Les-Bains Auxerre Bale-Mulhouse Sion Nancy / Ochey

Om een weerknop op uw website of weblog te plaatsen, copieer onderstaande code en plak die in uw pagina. In het eerste vakje staat HTML-code, in het tweede vakje UBB-code.


Add to Google

Details

Wind speed:1 bf, 3 kn, 1.5 m/s, 3.5 miles/h, 5.6 km/h
Wind direction:Variable
Láthatóság általában:Nagyobb, mint 10000 m, 10 km, 32800 ft, 6.2 miles
Clouds:CAVOC
Hmrsklet:20°C, 68°F
Harmatpont:14°C, 57°F
Légköri nyomás:1026 hPa, 769.6 mmHg, 30.30 inHg, 1.013 atm
Relatív páratartalom:68.4 %
METAR:LFGJ 230730Z AUTO VRB03KT CAVOK 20/14 Q1026 NOSIG

Snelkoppelingen

Actuele weersinformatie van de hele wereld. Voeg locaties toe met het plus (+) symbool. Deze snelkoppelingen kunnen worden toegevoegd aan Google.

Lid van de Technetium groep

website free tracking
StatCounter NetStat W3C Validator

21-01-2022 02:57:12
astro.technetium.be money.technetium.be phote.technetium.be tafeltennistafel.technetium.be www.ligfiets.net